Navigator Of The Seas — C6FU4 — position and weather

sailwx.info

Track history (hours):
 
Tides and Currents Weather Stations Pressure Air Temp Water Temp Dewpoint Dewpoint Depression Visibility Wind Speed Wind Dir Waves Ship Positions

Navigator Of The Seas

Operator: Royal Caribbean Cruises Ltd

Last reported at 2019-Aug-20 07:00 UTC. Time now 2019-Aug-20 10:16 UTC.
Position N 25°54' W 077°54'.

Type: Passenger vessel. MMSI: 311478000.

Wind from 070 at 11 knots

Barometer 1024.3 mb
Air temperature 26.0 ° C
Visibility: greater than 10.8 NM
Water temperature 30.0 ° C

Date/timePositionNaut miles runAvg speedWind from/ knotsBaromVisibWave heightAir tempDewpointWater temp
2019-Aug-20 07:00N 25°54' W 077°54'6813.7 070 / 111024.310.8 26.0 30.0
2019-Aug-20 02:02N 26°10' W 079°07'011.7
2019-Aug-20 02:00N 26°10' W 079°08'712.0
2019-Aug-20 01:27N 26°08' W 079°15'612.3
2019-Aug-20 01:00N 26°05' W 079°20'713.4
2019-Aug-20 00:30N 26°02' W 079°27'713.8
2019-Aug-20 00:00N 25°59' W 079°34'713.3
2019-Aug-19 23:30N 25°56' W 079°40'714.2
2019-Aug-19 23:00N 25°53' W 079°47'714.3
2019-Aug-19 22:30N 25°51' W 079°55'714.3
2019-Aug-19 22:00N 25°48' W 080°02'510.8
2019-Aug-19 21:30N 25°46' W 080°08'3 6.6
2019-Aug-19 21:00N 25°47' W 080°11'1 2.8
2019-Aug-19 20:29N 25°46' W 080°10'0 0.0
2019-Aug-19 19:59N 25°46' W 080°10'0 0.0
2019-Aug-19 19:29N 25°46' W 080°10'0 0.0
2019-Aug-19 18:59N 25°46' W 080°10'0 0.0
2019-Aug-19 18:29N 25°46' W 080°10'0 0.0
2019-Aug-19 17:59N 25°46' W 080°10'0 0.0
2019-Aug-19 17:29N 25°46' W 080°10'0 0.0
2019-Aug-19 16:59N 25°46' W 080°10'0 0.0
2019-Aug-19 16:29N 25°46' W 080°10'0 0.0
2019-Aug-19 15:59N 25°46' W 080°10'0 0.0
2019-Aug-19 15:29N 25°46' W 080°10'0 0.0
2019-Aug-19 14:59N 25°46' W 080°10'0 0.0
2019-Aug-19 14:29N 25°46' W 080°10'0 0.0
2019-Aug-19 13:59N 25°46' W 080°10'0 0.0
2019-Aug-19 13:29N 25°46' W 080°10'0 0.0
2019-Aug-19 12:59N 25°46' W 080°10'0 0.0
2019-Aug-19 12:29N 25°46' W 080°10'0 0.0
2019-Aug-19 11:59N 25°46' W 080°10'0 0.0
2019-Aug-19 11:29N 25°46' W 080°10'0 0.0
2019-Aug-19 10:59N 25°46' W 080°10'0 0.0
2019-Aug-19 10:29N 25°46' W 080°10'0 0.0
2019-Aug-19 09:59N 25°46' W 080°10'1 2.9
2019-Aug-19 09:30N 25°46' W 080°08'611.9
2019-Aug-19 09:01N 25°47' W 080°02'510.8
2019-Aug-19 08:30N 25°49' W 079°56'713.1
2019-Aug-19 08:00N 25°52' W 079°50'713.1
2019-Aug-19 07:30N 25°55' W 079°43'713.3
2019-Aug-19 07:00N 25°58' W 079°36'4456.8
2019-Aug-19 07:00N 25°54' W 079°36'918.7 090 / 161024.210.8 26.0 30.0
2019-Aug-19 06:30N 26°01' W 079°30'714.1
2019-Aug-19 05:59N 26°04' W 079°22'121 5.1
2019-Aug-18 06:00N 25°18' W 077°18'44 4.0 090 / 141025.210.8 26.0 30.0
2019-Aug-17 19:00N 25°48' W 077°54'40 3.0 150 / 51025.210.8 30.0 30.0
2019-Aug-17 06:00N 26°00' W 078°36'36 9.3 250 / 251025.2 5.4 26.0 30.0
2019-Aug-17 02:08N 26°09' W 079°15'1 9.2
2019-Aug-17 02:01N 26°09' W 079°16'5 9.7
2019-Aug-17 01:30N 26°07' W 079°21'5 9.7
2019-Aug-17 01:01N 26°05' W 079°26'510.1
2019-Aug-17 00:31N 26°03' W 079°31'510.3
2019-Aug-17 00:00N 26°00' W 079°36'510.0
2019-Aug-16 23:30N 25°58' W 079°41'5 9.9
2019-Aug-16 23:00N 25°55' W 079°46'510.1
2019-Aug-16 22:31N 25°53' W 079°50'510.0
2019-Aug-16 22:00N 25°50' W 079°55'510.9
2019-Aug-16 21:31N 25°48' W 080°00'510.6
2019-Aug-16 21:00N 25°46' W 080°06'3 6.2
2019-Aug-16 20:28N 25°46' W 080°09'0 0.0
2019-Aug-16 19:58N 25°46' W 080°09'0 0.0
2019-Aug-16 19:25N 25°46' W 080°09'0 0.0
2019-Aug-16 18:58N 25°46' W 080°09'0 0.0
2019-Aug-16 18:28N 25°46' W 080°09'0 0.0
2019-Aug-16 17:55N 25°46' W 080°09'0 0.0
2019-Aug-16 17:28N 25°46' W 080°09'0 0.0
2019-Aug-16 16:58N 25°46' W 080°09'0 0.0
2019-Aug-16 16:28N 25°46' W 080°09'0 0.0
2019-Aug-16 15:55N 25°46' W 080°09'0 0.0
2019-Aug-16 15:28N 25°46' W 080°09'0 0.0
2019-Aug-16 14:58N 25°46' W 080°09'0 0.0
2019-Aug-16 14:28N 25°46' W 080°09'0 0.0
2019-Aug-16 13:58N 25°46' W 080°09'0 0.0
2019-Aug-16 13:28N 25°46' W 080°09'0 0.0
2019-Aug-16 12:58N 25°46' W 080°09'0 0.0
2019-Aug-16 12:28N 25°46' W 080°09'0 0.0
2019-Aug-16 11:58N 25°46' W 080°09'0 0.0
2019-Aug-16 11:28N 25°46' W 080°09'0 0.0
2019-Aug-16 10:58N 25°46' W 080°09'0 0.0
2019-Aug-16 10:28N 25°46' W 080°09'0 0.6
2019-Aug-16 10:00N 25°46' W 080°10'1 1.6
2019-Aug-16 09:30N 25°47' W 080°10'4 8.5
2019-Aug-16 09:00N 25°46' W 080°06'510.5
2019-Aug-16 08:31N 25°47' W 080°01'4 7.5
2019-Aug-16 08:01N 25°49' W 079°57'4 7.8
2019-Aug-16 07:30N 25°51' W 079°53'4 8.0
2019-Aug-16 07:01N 25°52' W 079°49'4 7.9
2019-Aug-16 06:31N 25°54' W 079°45'4 8.0
2019-Aug-16 06:00N 25°56' W 079°41'2212.2
2019-Aug-16 06:00N 25°54' W 079°42'611.9 150 / 251024.3 5.4 26.0 30.0
2019-Aug-16 05:30N 25°58' W 079°37'4 8.0
2019-Aug-16 05:00N 25°60' W 079°33'4 8.3
2019-Aug-16 04:30N 26°02' W 079°29'4 8.0
2019-Aug-16 03:59N 26°03' W 079°25'4 8.2
2019-Aug-16 03:28N 26°05' W 079°21'5 8.6
2019-Aug-16 02:56N 26°07' W 079°16'105 5.0
2019-Aug-15 06:00N 25°36' W 077°24'19 0.8 120 / 51022.210.8 30.0
2019-Aug-14 06:00N 25°18' W 077°18'85 3.5 140 / 121021.2 27.0 30.0
2019-Aug-13 06:00N 26°06' W 078°36'3510.9 1020.210.8 26.0 29.0
2019-Aug-13 02:46N 26°09' W 079°15'8 9.9
2019-Aug-13 02:00N 26°06' W 079°23'510.1
2019-Aug-13 01:30N 26°04' W 079°28'611.1
2019-Aug-13 01:00N 26°01' W 079°33'611.1
2019-Aug-13 00:29N 25°59' W 079°39'510.2
2019-Aug-13 00:00N 25°56' W 079°44'5 9.9
2019-Aug-12 23:30N 25°54' W 079°48'4 9.0
2019-Aug-12 23:00N 25°52' W 079°53'5 9.3
2019-Aug-12 22:31N 25°50' W 079°57'510.0
2019-Aug-12 22:00N 25°47' W 080°02'510.5
2019-Aug-12 21:30N 25°46' W 080°08'3 6.3
2019-Aug-12 21:00N 25°47' W 080°11'1 2.3
2019-Aug-12 20:25N 25°46' W 080°10'0 0.0
2019-Aug-12 19:58N 25°46' W 080°10'0 0.0
2019-Aug-12 19:28N 25°46' W 080°10'0 0.0
2019-Aug-12 18:58N 25°46' W 080°10'0 0.0
2019-Aug-12 18:28N 25°46' W 080°10'0 0.0
2019-Aug-12 17:58N 25°46' W 080°10'0 0.0
2019-Aug-12 17:28N 25°46' W 080°10'0 0.0
2019-Aug-12 16:58N 25°46' W 080°10'0 0.0
2019-Aug-12 16:28N 25°46' W 080°10'0 0.0
2019-Aug-12 15:58N 25°46' W 080°10'0 0.0
2019-Aug-12 15:28N 25°46' W 080°10'0 0.0
2019-Aug-12 14:58N 25°46' W 080°10'0 0.0
2019-Aug-12 14:28N 25°46' W 080°10'0 0.0
2019-Aug-12 13:58N 25°46' W 080°10'0 0.0
2019-Aug-12 13:28N 25°46' W 080°10'0 0.0
2019-Aug-12 12:58N 25°46' W 080°10'0 0.0
2019-Aug-12 12:28N 25°46' W 080°10'0 0.0
2019-Aug-12 11:58N 25°46' W 080°10'0 0.0
2019-Aug-12 11:28N 25°46' W 080°10'0 0.0
2019-Aug-12 10:58N 25°46' W 080°10'0 0.0
2019-Aug-12 10:28N 25°46' W 080°10'0 0.0
2019-Aug-12 09:58N 25°46' W 080°10'1 2.1
2019-Aug-12 09:30N 25°46' W 080°09'611.2
2019-Aug-12 09:00N 25°47' W 080°02'611.3
2019-Aug-12 08:30N 25°49' W 079°57'612.4
2019-Aug-12 08:00N 25°52' W 079°50'713.2
2019-Aug-12 07:30N 25°55' W 079°44'713.7
2019-Aug-12 07:00N 25°58' W 079°37'714.5
2019-Aug-12 06:30N 26°01' W 079°30'715.0
2019-Aug-12 06:00N 26°04' W 079°22'4292.1
2019-Aug-12 06:00N 26°00' W 079°24'1122.6 230 / 51020.210.8 26.0 30.0
2019-Aug-12 05:30N 26°07' W 079°14'113 4.8
2019-Aug-11 06:00N 25°24' W 077°18'   220 / 81022.210.8 26.0 30.0
Track history (hours):
 
Tides and Currents Weather Stations Pressure Air Temp Water Temp Dewpoint Dewpoint Depression Visibility Wind Speed Wind Dir Waves Ship Positions

Navigator Of The Seas

Operator: Royal Caribbean Cruises Ltd

Last reported at 2019-Aug-20 07:00 UTC. Time now 2019-Aug-20 10:16 UTC.
Position N 25°54' W 077°54'.

Type: Passenger vessel. MMSI: 311478000.

Wind from 070 at 11 knots

Barometer 1024.3 mb
Air temperature 26.0 ° C
Visibility: greater than 10.8 NM
Water temperature 30.0 ° C

Date/timePositionNaut miles runAvg speedWind from/ knotsBaromVisibWave heightAir tempDewpointWater temp
2019-Aug-20 07:00N 25°54' W 077°54'6813.7 070 / 111024.310.8 26.0 30.0
2019-Aug-20 02:02N 26°10' W 079°07'011.7
2019-Aug-20 02:00N 26°10' W 079°08'712.0
2019-Aug-20 01:27N 26°08' W 079°15'612.3
2019-Aug-20 01:00N 26°05' W 079°20'713.4
2019-Aug-20 00:30N 26°02' W 079°27'713.8
2019-Aug-20 00:00N 25°59' W 079°34'713.3
2019-Aug-19 23:30N 25°56' W 079°40'714.2
2019-Aug-19 23:00N 25°53' W 079°47'714.3
2019-Aug-19 22:30N 25°51' W 079°55'714.3
2019-Aug-19 22:00N 25°48' W 080°02'510.8
2019-Aug-19 21:30N 25°46' W 080°08'3 6.6
2019-Aug-19 21:00N 25°47' W 080°11'1 2.8
2019-Aug-19 20:29N 25°46' W 080°10'0 0.0
2019-Aug-19 19:59N 25°46' W 080°10'0 0.0
2019-Aug-19 19:29N 25°46' W 080°10'0 0.0
2019-Aug-19 18:59N 25°46' W 080°10'0 0.0
2019-Aug-19 18:29N 25°46' W 080°10'0 0.0
2019-Aug-19 17:59N 25°46' W 080°10'0 0.0
2019-Aug-19 17:29N 25°46' W 080°10'0 0.0
2019-Aug-19 16:59N 25°46' W 080°10'0 0.0
2019-Aug-19 16:29N 25°46' W 080°10'0 0.0
2019-Aug-19 15:59N 25°46' W 080°10'0 0.0
2019-Aug-19 15:29N 25°46' W 080°10'0 0.0
2019-Aug-19 14:59N 25°46' W 080°10'0 0.0
2019-Aug-19 14:29N 25°46' W 080°10'0 0.0
2019-Aug-19 13:59N 25°46' W 080°10'0 0.0
2019-Aug-19 13:29N 25°46' W 080°10'0 0.0
2019-Aug-19 12:59N 25°46' W 080°10'0 0.0
2019-Aug-19 12:29N 25°46' W 080°10'0 0.0
2019-Aug-19 11:59N 25°46' W 080°10'0 0.0
2019-Aug-19 11:29N 25°46' W 080°10'0 0.0
2019-Aug-19 10:59N 25°46' W 080°10'0 0.0
2019-Aug-19 10:29N 25°46' W 080°10'0 0.0
2019-Aug-19 09:59N 25°46' W 080°10'1 2.9
2019-Aug-19 09:30N 25°46' W 080°08'611.9
2019-Aug-19 09:01N 25°47' W 080°02'510.8
2019-Aug-19 08:30N 25°49' W 079°56'713.1
2019-Aug-19 08:00N 25°52' W 079°50'713.1
2019-Aug-19 07:30N 25°55' W 079°43'713.3
2019-Aug-19 07:00N 25°58' W 079°36'4456.8
2019-Aug-19 07:00N 25°54' W 079°36'918.7 090 / 161024.210.8 26.0 30.0
2019-Aug-19 06:30N 26°01' W 079°30'714.1
2019-Aug-19 05:59N 26°04' W 079°22'121 5.1
2019-Aug-18 06:00N 25°18' W 077°18'44 4.0 090 / 141025.210.8 26.0 30.0
2019-Aug-17 19:00N 25°48' W 077°54'40 3.0 150 / 51025.210.8 30.0 30.0
2019-Aug-17 06:00N 26°00' W 078°36'36 9.3 250 / 251025.2 5.4 26.0 30.0
2019-Aug-17 02:08N 26°09' W 079°15'1 9.2
2019-Aug-17 02:01N 26°09' W 079°16'5 9.7
2019-Aug-17 01:30N 26°07' W 079°21'5 9.7
2019-Aug-17 01:01N 26°05' W 079°26'510.1
2019-Aug-17 00:31N 26°03' W 079°31'510.3
2019-Aug-17 00:00N 26°00' W 079°36'510.0
2019-Aug-16 23:30N 25°58' W 079°41'5 9.9
2019-Aug-16 23:00N 25°55' W 079°46'510.1
2019-Aug-16 22:31N 25°53' W 079°50'510.0
2019-Aug-16 22:00N 25°50' W 079°55'510.9
2019-Aug-16 21:31N 25°48' W 080°00'510.6
2019-Aug-16 21:00N 25°46' W 080°06'3 6.2
2019-Aug-16 20:28N 25°46' W 080°09'0 0.0
2019-Aug-16 19:58N 25°46' W 080°09'0 0.0
2019-Aug-16 19:25N 25°46' W 080°09'0 0.0
2019-Aug-16 18:58N 25°46' W 080°09'0 0.0
2019-Aug-16 18:28N 25°46' W 080°09'0 0.0
2019-Aug-16 17:55N 25°46' W 080°09'0 0.0
2019-Aug-16 17:28N 25°46' W 080°09'0 0.0
2019-Aug-16 16:58N 25°46' W 080°09'0 0.0
2019-Aug-16 16:28N 25°46' W 080°09'0 0.0
2019-Aug-16 15:55N 25°46' W 080°09'0 0.0
2019-Aug-16 15:28N 25°46' W 080°09'0 0.0
2019-Aug-16 14:58N 25°46' W 080°09'0 0.0
2019-Aug-16 14:28N 25°46' W 080°09'0 0.0
2019-Aug-16 13:58N 25°46' W 080°09'0 0.0
2019-Aug-16 13:28N 25°46' W 080°09'0 0.0
2019-Aug-16 12:58N 25°46' W 080°09'0 0.0
2019-Aug-16 12:28N 25°46' W 080°09'0 0.0
2019-Aug-16 11:58N 25°46' W 080°09'0 0.0
2019-Aug-16 11:28N 25°46' W 080°09'0 0.0
2019-Aug-16 10:58N 25°46' W 080°09'0 0.0
2019-Aug-16 10:28N 25°46' W 080°09'0 0.6
2019-Aug-16 10:00N 25°46' W 080°10'1 1.6
2019-Aug-16 09:30N 25°47' W 080°10'4 8.5
2019-Aug-16 09:00N 25°46' W 080°06'510.5
2019-Aug-16 08:31N 25°47' W 080°01'4 7.5
2019-Aug-16 08:01N 25°49' W 079°57'4 7.8
2019-Aug-16 07:30N 25°51' W 079°53'4 8.0
2019-Aug-16 07:01N 25°52' W 079°49'4 7.9
2019-Aug-16 06:31N 25°54' W 079°45'4 8.0
2019-Aug-16 06:00N 25°56' W 079°41'2212.2
2019-Aug-16 06:00N 25°54' W 079°42'611.9 150 / 251024.3 5.4 26.0 30.0
2019-Aug-16 05:30N 25°58' W 079°37'4 8.0
2019-Aug-16 05:00N 25°60' W 079°33'4 8.3
2019-Aug-16 04:30N 26°02' W 079°29'4 8.0
2019-Aug-16 03:59N 26°03' W 079°25'4 8.2
2019-Aug-16 03:28N 26°05' W 079°21'5 8.6
2019-Aug-16 02:56N 26°07' W 079°16'105 5.0
2019-Aug-15 06:00N 25°36' W 077°24'19 0.8 120 / 51022.210.8 30.0
2019-Aug-14 06:00N 25°18' W 077°18'85 3.5 140 / 121021.2 27.0 30.0
2019-Aug-13 06:00N 26°06' W 078°36'3510.9 1020.210.8 26.0 29.0
2019-Aug-13 02:46N 26°09' W 079°15'8 9.9
2019-Aug-13 02:00N 26°06' W 079°23'510.1
2019-Aug-13 01:30N 26°04' W 079°28'611.1
2019-Aug-13 01:00N 26°01' W 079°33'611.1
2019-Aug-13 00:29N 25°59' W 079°39'510.2
2019-Aug-13 00:00N 25°56' W 079°44'5 9.9
2019-Aug-12 23:30N 25°54' W 079°48'4 9.0
2019-Aug-12 23:00N 25°52' W 079°53'5 9.3
2019-Aug-12 22:31N 25°50' W 079°57'510.0
2019-Aug-12 22:00N 25°47' W 080°02'510.5
2019-Aug-12 21:30N 25°46' W 080°08'3 6.3
2019-Aug-12 21:00N 25°47' W 080°11'1 2.3
2019-Aug-12 20:25N 25°46' W 080°10'0 0.0
2019-Aug-12 19:58N 25°46' W 080°10'0 0.0
2019-Aug-12 19:28N 25°46' W 080°10'0 0.0
2019-Aug-12 18:58N 25°46' W 080°10'0 0.0
2019-Aug-12 18:28N 25°46' W 080°10'0 0.0
2019-Aug-12 17:58N 25°46' W 080°10'0 0.0
2019-Aug-12 17:28N 25°46' W 080°10'0 0.0
2019-Aug-12 16:58N 25°46' W 080°10'0 0.0
2019-Aug-12 16:28N 25°46' W 080°10'0 0.0
2019-Aug-12 15:58N 25°46' W 080°10'0 0.0
2019-Aug-12 15:28N 25°46' W 080°10'0 0.0
2019-Aug-12 14:58N 25°46' W 080°10'0 0.0
2019-Aug-12 14:28N 25°46' W 080°10'0 0.0
2019-Aug-12 13:58N 25°46' W 080°10'0 0.0
2019-Aug-12 13:28N 25°46' W 080°10'0 0.0
2019-Aug-12 12:58N 25°46' W 080°10'0 0.0
2019-Aug-12 12:28N 25°46' W 080°10'0 0.0
2019-Aug-12 11:58N 25°46' W 080°10'0 0.0
2019-Aug-12 11:28N 25°46' W 080°10'0 0.0
2019-Aug-12 10:58N 25°46' W 080°10'0 0.0
2019-Aug-12 10:28N 25°46' W 080°10'0 0.0
2019-Aug-12 09:58N 25°46' W 080°10'1 2.1
2019-Aug-12 09:30N 25°46' W 080°09'611.2
2019-Aug-12 09:00N 25°47' W 080°02'611.3
2019-Aug-12 08:30N 25°49' W 079°57'612.4
2019-Aug-12 08:00N 25°52' W 079°50'713.2
2019-Aug-12 07:30N 25°55' W 079°44'713.7
2019-Aug-12 07:00N 25°58' W 079°37'714.5
2019-Aug-12 06:30N 26°01' W 079°30'715.0
2019-Aug-12 06:00N 26°04' W 079°22'4292.1
2019-Aug-12 06:00N 26°00' W 079°24'1122.6 230 / 51020.210.8 26.0 30.0
2019-Aug-12 05:30N 26°07' W 079°14'113 4.8
2019-Aug-11 06:00N 25°24' W 077°18'   220 / 81022.210.8 26.0 30.0

Dump ship's entire track history